createdAt,value
2022-10-23T00:01:36.586Z,15.44
2022-10-23T00:04:05.945Z,15.39
2022-10-23T00:06:33.841Z,15.39
2022-10-23T00:09:00.743Z,15.35
2022-10-23T00:11:29.612Z,15.31
2022-10-23T00:14:00.460Z,15.31
2022-10-23T00:16:27.897Z,15.34
2022-10-23T00:18:54.686Z,15.32
2022-10-23T00:21:21.416Z,15.40
2022-10-23T00:23:47.972Z,15.41
2022-10-23T00:26:15.830Z,15.43
2022-10-23T00:28:49.481Z,15.42
2022-10-23T00:31:16.655Z,15.36
2022-10-23T00:33:43.675Z,15.36
2022-10-23T00:36:12.542Z,15.31
2022-10-23T00:38:40.238Z,15.36
2022-10-23T00:41:09.018Z,15.42
2022-10-23T00:44:03.113Z,15.40
2022-10-23T00:46:30.149Z,15.26
2022-10-23T00:48:57.414Z,15.27
2022-10-23T00:51:27.600Z,15.25
2022-10-23T00:54:12.801Z,15.20
2022-10-23T00:56:46.204Z,15.31
2022-10-23T00:59:13.001Z,15.27
2022-10-23T01:01:39.808Z,15.30
2022-10-23T01:04:07.875Z,15.39
2022-10-23T01:06:55.662Z,15.31
2022-10-23T01:09:40.537Z,15.14
2022-10-23T01:12:23.965Z,15.16
2022-10-23T01:15:06.470Z,15.16
2022-10-23T01:17:44.546Z,15.18
2022-10-23T01:20:36.058Z,15.23
2022-10-23T01:23:31.699Z,15.28
2022-10-23T01:26:02.400Z,15.36
2022-10-23T01:28:36.290Z,15.46
2022-10-23T01:31:11.076Z,15.43
2022-10-23T01:33:45.025Z,15.47
2022-10-23T01:36:15.562Z,15.49
2022-10-23T01:38:50.410Z,15.22
2022-10-23T01:41:39.957Z,15.15
2022-10-23T01:44:23.909Z,15.12
2022-10-23T01:46:53.224Z,15.10
2022-10-23T01:49:22.616Z,15.00
2022-10-23T01:51:57.442Z,15.02
2022-10-23T01:54:29.552Z,15.05
2022-10-23T01:56:58.344Z,15.00
2022-10-23T01:59:37.196Z,15.06
2022-10-23T02:02:07.036Z,15.05
2022-10-23T02:04:38.392Z,15.10
2022-10-23T02:07:05.646Z,15.10
2022-10-23T02:09:33.573Z,15.11
2022-10-23T02:12:18.592Z,15.25
2022-10-23T02:15:01.252Z,15.21
2022-10-23T02:17:41.939Z,15.23
2022-10-23T02:20:34.747Z,15.17
2022-10-23T02:23:12.324Z,15.12
2022-10-23T02:25:59.929Z,15.15
2022-10-23T02:28:36.552Z,15.14
2022-10-23T02:31:08.551Z,15.12
2022-10-23T02:33:36.584Z,15.09
2022-10-23T02:36:03.296Z,15.03
2022-10-23T02:38:42.530Z,15.11
2022-10-23T02:41:23.950Z,15.17
2022-10-23T02:44:19.969Z,15.14
2022-10-23T02:47:17.394Z,15.10
2022-10-23T02:50:20.898Z,15.06
2022-10-23T02:52:59.285Z,15.09
2022-10-23T02:55:38.532Z,15.09
2022-10-23T02:58:10.569Z,15.10
2022-10-23T03:00:48.035Z,15.06
2022-10-23T03:03:20.692Z,15.12
2022-10-23T03:05:47.672Z,15.14
2022-10-23T03:08:14.663Z,15.14
2022-10-23T03:10:42.529Z,15.14
2022-10-23T03:13:10.687Z,15.22
2022-10-23T03:15:41.381Z,15.19
2022-10-23T03:18:12.116Z,15.21
2022-10-23T03:20:40.248Z,15.22
2022-10-23T03:23:06.830Z,15.23
2022-10-23T03:25:33.537Z,15.27
2022-10-23T03:28:01.558Z,15.30
2022-10-23T03:30:29.142Z,15.33
2022-10-23T03:32:55.789Z,15.35
2022-10-23T03:35:22.433Z,15.34
2022-10-23T03:37:48.997Z,15.34
2022-10-23T03:40:16.172Z,15.33
2022-10-23T03:42:42.753Z,15.33
2022-10-23T03:45:11.980Z,15.32
2022-10-23T03:47:41.489Z,15.34
2022-10-23T03:50:09.454Z,15.36
2022-10-23T03:52:36.586Z,15.43
2022-10-23T03:55:04.134Z,15.39
2022-10-23T03:57:30.719Z,15.41
2022-10-23T03:59:57.649Z,15.37
2022-10-23T04:02:30.481Z,15.31
2022-10-23T04:04:57.140Z,15.28
2022-10-23T04:07:23.950Z,15.30
2022-10-23T04:09:50.683Z,15.24
2022-10-23T04:12:17.276Z,15.34
2022-10-23T04:14:44.332Z,15.33
2022-10-23T04:17:11.062Z,15.27
2022-10-23T04:19:37.714Z,15.26
2022-10-23T04:22:04.338Z,15.28
2022-10-23T04:24:31.021Z,15.22
2022-10-23T04:26:57.621Z,15.08
2022-10-23T04:29:28.481Z,15.07
2022-10-23T04:31:55.285Z,15.07
2022-10-23T04:34:21.881Z,15.07
2022-10-23T04:36:48.534Z,15.04
2022-10-23T04:39:15.177Z,15.02
2022-10-23T04:41:41.844Z,14.98
2022-10-23T04:44:08.501Z,15.00
2022-10-23T04:46:38.915Z,15.07
2022-10-23T04:49:05.750Z,15.16
2022-10-23T04:51:50.232Z,15.25
2022-10-23T04:54:37.635Z,15.21
2022-10-23T04:57:22.453Z,15.20
2022-10-23T04:59:57.665Z,15.21
2022-10-23T05:02:24.766Z,15.20
2022-10-23T05:04:52.638Z,15.21
2022-10-23T05:07:39.382Z,15.22
2022-10-23T05:10:24.498Z,15.26
2022-10-23T05:13:12.176Z,15.31
2022-10-23T05:15:40.073Z,15.27
2022-10-23T05:18:15.521Z,15.19
2022-10-23T05:20:46.717Z,15.20
2022-10-23T05:23:17.115Z,15.16
2022-10-23T05:25:52.868Z,15.16
2022-10-23T05:28:19.541Z,15.17
2022-10-23T05:30:46.797Z,15.18
2022-10-23T05:33:14.496Z,15.31
2022-10-23T05:35:48.222Z,15.29
2022-10-23T05:38:16.830Z,15.34
2022-10-23T05:40:44.064Z,15.31
2022-10-23T05:43:16.528Z,15.30
2022-10-23T05:45:49.030Z,15.25
2022-10-23T05:48:41.701Z,15.27
2022-10-23T05:51:27.206Z,15.28
2022-10-23T05:54:01.480Z,15.32
2022-10-23T05:56:33.608Z,15.33
2022-10-23T05:59:22.030Z,15.31
2022-10-23T06:01:49.934Z,15.22
2022-10-23T06:04:28.858Z,15.19
2022-10-23T06:07:16.411Z,15.14
2022-10-23T06:09:45.349Z,15.14
2022-10-23T06:12:12.785Z,15.20
2022-10-23T06:14:42.577Z,15.29
2022-10-23T06:17:09.213Z,15.25
2022-10-23T06:19:41.342Z,15.21
2022-10-23T06:22:08.078Z,15.19
2022-10-23T06:24:46.190Z,15.27
2022-10-23T06:27:15.835Z,15.18
2022-10-23T06:29:44.242Z,15.15
2022-10-23T06:32:12.160Z,15.17
2022-10-23T06:34:40.821Z,15.18
2022-10-23T06:37:08.790Z,15.25
2022-10-23T06:39:46.632Z,15.33
2022-10-23T06:42:16.647Z,15.34
2022-10-23T06:44:52.432Z,15.24
2022-10-23T06:47:51.434Z,15.12
2022-10-23T06:50:38.360Z,15.08
2022-10-23T06:53:12.391Z,15.08
2022-10-23T06:55:45.262Z,15.19
2022-10-23T06:58:11.911Z,15.22
2022-10-23T07:00:54.022Z,15.23
2022-10-23T07:03:20.792Z,15.25
2022-10-23T07:05:47.720Z,15.25
2022-10-23T07:08:14.942Z,15.25
2022-10-23T07:10:44.204Z,15.24
2022-10-23T07:13:11.978Z,15.13
2022-10-23T07:15:40.648Z,15.21
2022-10-23T07:18:14.491Z,15.25
2022-10-23T07:20:59.809Z,15.20
2022-10-23T07:23:28.314Z,15.31
2022-10-23T07:25:55.323Z,15.27
2022-10-23T07:28:23.342Z,15.23
2022-10-23T07:30:57.833Z,15.15
2022-10-23T07:33:25.468Z,15.25
2022-10-23T07:36:10.018Z,15.22
2022-10-23T07:38:36.883Z,15.20
2022-10-23T07:41:07.786Z,15.18
2022-10-23T07:43:37.620Z,15.25
2022-10-23T07:46:04.506Z,15.28
2022-10-23T07:48:37.234Z,15.27
2022-10-23T07:51:10.834Z,15.26
2022-10-23T07:53:43.414Z,15.28
2022-10-23T07:56:32.958Z,15.35
2022-10-23T07:59:28.823Z,15.38
2022-10-23T08:01:56.736Z,15.46
2022-10-23T08:04:37.132Z,15.46
2022-10-23T08:07:17.569Z,15.42
2022-10-23T08:09:47.919Z,15.42
2022-10-23T08:12:14.655Z,15.39
2022-10-23T08:14:41.276Z,15.39
2022-10-23T08:17:09.858Z,15.39
2022-10-23T08:19:59.099Z,15.49
2022-10-23T08:22:30.841Z,15.54
2022-10-23T08:24:57.554Z,15.41
2022-10-23T08:27:25.041Z,15.29
2022-10-23T08:29:52.400Z,15.32
2022-10-23T08:32:20.690Z,15.31
2022-10-23T08:34:53.184Z,15.33
2022-10-23T08:37:22.788Z,15.31
2022-10-23T08:39:51.398Z,15.32
2022-10-23T08:42:27.527Z,15.30
2022-10-23T08:45:05.941Z,15.30
2022-10-23T08:47:47.882Z,15.24
2022-10-23T08:50:49.200Z,15.29
2022-10-23T08:53:27.942Z,15.32
2022-10-23T08:56:14.275Z,15.33
2022-10-23T08:58:48.897Z,15.35
2022-10-23T09:01:40.187Z,15.38
2022-10-23T09:04:09.017Z,15.36
2022-10-23T09:06:35.613Z,15.32
2022-10-23T09:09:14.121Z,15.30
2022-10-23T09:11:52.434Z,15.33
2022-10-23T09:14:50.149Z,15.31
2022-10-23T09:17:19.861Z,15.31
2022-10-23T09:19:46.506Z,15.27
2022-10-23T09:22:13.672Z,15.29
2022-10-23T09:24:43.081Z,15.30
2022-10-23T09:27:16.811Z,15.26
2022-10-23T09:29:52.752Z,15.28
2022-10-23T09:32:20.384Z,15.30
2022-10-23T09:34:54.202Z,15.31
2022-10-23T09:37:29.749Z,15.30
2022-10-23T09:40:14.231Z,15.28
2022-10-23T09:42:53.182Z,15.30
2022-10-23T09:45:25.032Z,15.29
2022-10-23T09:48:13.112Z,15.32
2022-10-23T09:50:57.325Z,15.28
2022-10-23T09:53:30.578Z,15.28
2022-10-23T09:56:00.748Z,15.25
2022-10-23T09:58:40.272Z,15.25
2022-10-23T10:01:07.011Z,15.27
2022-10-23T10:03:52.256Z,15.33
2022-10-23T10:06:29.964Z,15.36
2022-10-23T10:08:59.331Z,15.36
2022-10-23T10:11:46.169Z,15.42
2022-10-23T10:14:40.469Z,15.40
2022-10-23T10:17:37.630Z,15.41
2022-10-23T10:20:41.968Z,15.44
2022-10-23T10:23:42.445Z,15.47
2022-10-23T10:26:21.131Z,15.51
2022-10-23T10:29:08.945Z,15.46
2022-10-23T10:31:47.218Z,15.49
2022-10-23T10:34:48.302Z,15.51
2022-10-23T10:37:23.677Z,15.52
2022-10-23T10:39:58.620Z,15.54
2022-10-23T10:42:44.314Z,15.59
2022-10-23T10:45:12.498Z,15.58
2022-10-23T10:47:53.410Z,15.58
2022-10-23T10:50:31.145Z,15.58
2022-10-23T10:53:43.386Z,15.57
2022-10-23T10:56:14.932Z,15.58
2022-10-23T10:58:55.389Z,15.58
2022-10-23T11:01:26.630Z,15.61
2022-10-23T11:04:17.872Z,15.60
2022-10-23T11:06:49.000Z,15.64
2022-10-23T11:09:26.794Z,15.74
2022-10-23T11:11:54.068Z,15.67
2022-10-23T11:14:26.563Z,15.73
2022-10-23T11:17:02.108Z,15.73
2022-10-23T11:19:31.068Z,15.82
2022-10-23T11:22:27.785Z,15.77
2022-10-23T11:25:32.220Z,15.65
2022-10-23T11:28:13.922Z,15.66
2022-10-23T11:31:01.232Z,15.66
2022-10-23T11:33:41.426Z,15.67
2022-10-23T11:36:16.134Z,15.67
2022-10-23T11:38:53.767Z,15.69
2022-10-23T11:41:27.192Z,15.69
2022-10-23T11:44:08.897Z,15.72
2022-10-23T11:46:38.484Z,15.71
2022-10-23T11:49:19.220Z,15.67
2022-10-23T11:51:46.197Z,15.72
2022-10-23T11:54:15.316Z,15.74
2022-10-23T11:57:17.600Z,15.78
2022-10-23T11:59:47.298Z,15.79
2022-10-23T12:02:31.844Z,15.80
2022-10-23T12:05:09.377Z,15.77
2022-10-23T12:07:38.222Z,15.78
2022-10-23T12:10:26.644Z,15.78
2022-10-23T12:13:03.816Z,15.83
2022-10-23T12:15:31.990Z,15.86
2022-10-23T12:18:15.427Z,15.85
2022-10-23T12:20:56.263Z,15.84
2022-10-23T12:24:01.578Z,15.82
2022-10-23T12:26:37.266Z,15.78
2022-10-23T12:29:19.191Z,15.77
2022-10-23T12:32:01.077Z,15.77
2022-10-23T12:34:42.892Z,15.78
2022-10-23T12:37:31.132Z,15.72
2022-10-23T12:39:59.367Z,15.71
2022-10-23T12:42:28.188Z,15.74
2022-10-23T12:45:03.239Z,15.72
2022-10-23T12:47:30.799Z,15.76
2022-10-23T12:49:57.489Z,15.83
2022-10-23T12:52:27.262Z,15.85
2022-10-23T12:54:53.878Z,15.91
2022-10-23T12:57:25.877Z,15.90
2022-10-23T13:00:10.427Z,15.88
2022-10-23T13:02:37.274Z,15.89
2022-10-23T13:05:07.964Z,15.90
2022-10-23T13:07:41.225Z,15.90
2022-10-23T13:10:18.327Z,15.89
2022-10-23T13:13:13.792Z,15.89
2022-10-23T13:15:45.254Z,15.89
2022-10-23T13:18:14.504Z,15.90
2022-10-23T13:20:51.768Z,15.89
2022-10-23T13:23:33.704Z,15.97
2022-10-23T13:26:23.405Z,16.02
2022-10-23T13:28:50.364Z,15.99
2022-10-23T13:31:16.943Z,15.97
2022-10-23T13:34:02.969Z,15.95
2022-10-23T13:36:32.207Z,15.97
2022-10-23T13:39:09.887Z,15.99
2022-10-23T13:41:40.854Z,15.98
2022-10-23T13:44:07.641Z,15.96
2022-10-23T13:46:34.263Z,15.96
2022-10-23T13:49:00.881Z,16.06
2022-10-23T13:51:29.202Z,16.04
2022-10-23T13:53:57.571Z,16.03
2022-10-23T13:56:25.866Z,16.00
2022-10-23T13:58:52.634Z,15.98
2022-10-23T14:01:30.778Z,15.98
2022-10-23T14:03:58.561Z,15.97
2022-10-23T14:06:25.688Z,15.96
2022-10-23T14:08:52.506Z,16.04
2022-10-23T14:11:20.093Z,16.06
2022-10-23T14:13:46.932Z,16.03
2022-10-23T14:16:15.722Z,16.03
2022-10-23T14:18:42.410Z,16.09
2022-10-23T14:21:11.990Z,16.07
2022-10-23T14:23:38.679Z,16.08
2022-10-23T14:26:11.320Z,16.06
2022-10-23T14:28:38.530Z,16.00
2022-10-23T14:31:06.903Z,16.03
2022-10-23T14:33:33.553Z,16.03
2022-10-23T14:36:00.622Z,15.99
2022-10-23T14:38:27.607Z,16.03
2022-10-23T14:40:54.389Z,16.07
2022-10-23T14:43:22.666Z,16.08
2022-10-23T14:45:49.381Z,16.09
2022-10-23T14:48:16.124Z,16.09
2022-10-23T14:50:45.488Z,16.08
2022-10-23T14:53:12.446Z,16.08
2022-10-23T14:55:39.340Z,16.11
2022-10-23T14:58:06.602Z,16.10
2022-10-23T15:00:33.632Z,16.11
2022-10-23T15:03:00.281Z,16.01
2022-10-23T15:05:26.881Z,16.05
2022-10-23T15:07:55.875Z,16.00
2022-10-23T15:10:22.444Z,15.97
2022-10-23T15:12:49.405Z,15.98
2022-10-23T15:15:16.975Z,15.96
2022-10-23T15:17:43.733Z,15.99
2022-10-23T15:20:10.640Z,15.99
2022-10-23T15:22:37.345Z,16.00
2022-10-23T15:25:04.455Z,16.00
2022-10-23T15:27:31.126Z,16.03
2022-10-23T15:29:57.739Z,15.99
2022-10-23T15:32:24.522Z,16.01
2022-10-23T15:34:52.460Z,16.05
2022-10-23T15:37:19.320Z,16.00
2022-10-23T15:39:46.122Z,16.01
2022-10-23T15:42:12.885Z,15.98
2022-10-23T15:44:40.310Z,15.92
2022-10-23T15:47:07.225Z,15.97
2022-10-23T15:49:34.037Z,15.97
2022-10-23T15:52:02.211Z,15.96
2022-10-23T15:54:31.918Z,15.94
2022-10-23T15:57:00.101Z,15.99
2022-10-23T15:59:28.337Z,15.95
2022-10-23T16:01:55.796Z,15.89
2022-10-23T16:04:22.910Z,15.88
2022-10-23T16:06:49.892Z,15.81
2022-10-23T16:09:17.071Z,15.88
2022-10-23T16:11:44.275Z,15.93
2022-10-23T16:14:16.541Z,15.90
2022-10-23T16:16:43.426Z,15.92
2022-10-23T16:19:10.938Z,15.89
2022-10-23T16:21:37.778Z,15.88
2022-10-23T16:24:07.066Z,15.87
2022-10-23T16:26:35.230Z,15.94
2022-10-23T16:29:05.349Z,15.92
2022-10-23T16:31:32.577Z,15.93
2022-10-23T16:34:00.906Z,15.91
2022-10-23T16:36:28.425Z,15.90
2022-10-23T16:39:10.920Z,15.94
2022-10-23T16:41:56.057Z,15.96
2022-10-23T16:44:26.879Z,15.95
2022-10-23T16:46:58.272Z,15.91
2022-10-23T16:49:25.005Z,15.94
2022-10-23T16:51:51.600Z,15.83
2022-10-23T16:54:18.316Z,15.83
2022-10-23T16:56:45.221Z,15.79
2022-10-23T16:59:11.930Z,15.80
2022-10-23T17:01:38.679Z,15.80
2022-10-23T17:04:07.478Z,15.80
2022-10-23T17:06:34.640Z,15.77
2022-10-23T17:09:02.652Z,15.81
2022-10-23T17:11:32.318Z,15.81
2022-10-23T17:14:05.075Z,15.81
2022-10-23T17:16:41.059Z,15.80
2022-10-23T17:19:20.963Z,15.91
2022-10-23T17:21:55.168Z,15.90
2022-10-23T17:24:23.380Z,15.86
2022-10-23T17:26:50.093Z,15.85
2022-10-23T17:29:17.010Z,15.84
2022-10-23T17:31:47.109Z,15.84
2022-10-23T17:34:17.198Z,15.86
2022-10-23T17:36:46.747Z,15.87
2022-10-23T17:39:15.955Z,15.86
2022-10-23T17:41:43.588Z,15.87
2022-10-23T17:44:11.057Z,15.84
2022-10-23T17:46:37.824Z,15.86
2022-10-23T17:49:05.227Z,15.91
2022-10-23T17:51:35.270Z,15.95
2022-10-23T17:54:08.146Z,15.94
2022-10-23T17:56:37.552Z,15.91
2022-10-23T17:59:15.089Z,15.88
2022-10-23T18:01:46.828Z,15.87
2022-10-23T18:04:14.653Z,15.85
2022-10-23T18:06:44.992Z,15.79
2022-10-23T18:09:12.473Z,15.79
2022-10-23T18:11:45.253Z,15.81
2022-10-23T18:14:14.072Z,15.80
2022-10-23T18:16:41.729Z,15.78
2022-10-23T18:19:08.880Z,15.75
2022-10-23T18:21:36.400Z,15.76
2022-10-23T18:24:03.619Z,15.76
2022-10-23T18:26:34.804Z,15.79
2022-10-23T18:29:04.095Z,15.84
2022-10-23T18:31:30.716Z,15.79
2022-10-23T18:34:12.239Z,15.81
2022-10-23T18:36:40.711Z,15.79
2022-10-23T18:39:09.692Z,15.81
2022-10-23T18:41:39.637Z,15.87
2022-10-23T18:44:07.112Z,15.86
2022-10-23T18:46:34.526Z,15.86
2022-10-23T18:49:01.608Z,15.87
2022-10-23T18:51:30.666Z,15.94
2022-10-23T18:53:59.794Z,15.90
2022-10-23T18:56:27.819Z,15.91
2022-10-23T18:58:59.452Z,15.81
2022-10-23T19:01:27.515Z,15.82
2022-10-23T19:06:23.791Z,15.72
2022-10-23T19:08:51.163Z,15.75
2022-10-23T19:11:20.836Z,15.77
2022-10-23T19:13:47.432Z,15.70
2022-10-23T19:16:26.035Z,15.70
2022-10-23T19:18:59.415Z,15.67
2022-10-23T19:21:31.701Z,15.71
2022-10-23T19:24:01.656Z,15.74
2022-10-23T19:26:30.165Z,15.79
2022-10-23T19:28:57.710Z,15.76
2022-10-23T19:31:26.369Z,15.80
2022-10-23T19:33:53.513Z,15.74
2022-10-23T19:36:23.549Z,15.76
2022-10-23T19:38:50.835Z,15.67
2022-10-23T19:41:18.884Z,15.66
2022-10-23T19:43:45.851Z,15.66
2022-10-23T19:46:12.640Z,15.66
2022-10-23T19:48:44.142Z,15.65
2022-10-23T19:51:13.255Z,15.71
2022-10-23T19:53:41.235Z,15.68
2022-10-23T19:56:10.512Z,15.73
2022-10-23T19:58:37.737Z,15.71
2022-10-23T20:01:12.570Z,15.67
2022-10-23T20:03:40.881Z,15.73
2022-10-23T20:06:12.955Z,15.76
2022-10-23T20:08:40.254Z,15.76
2022-10-23T20:11:08.268Z,15.75
2022-10-23T20:13:35.553Z,15.74
2022-10-23T20:16:02.171Z,15.73
2022-10-23T20:18:29.645Z,15.71
2022-10-23T20:20:56.267Z,15.70
2022-10-23T20:23:23.097Z,15.74
2022-10-23T20:25:49.692Z,15.72
2022-10-23T20:28:18.734Z,15.70
2022-10-23T20:30:46.019Z,15.75
2022-10-23T20:33:12.835Z,15.71
2022-10-23T20:35:41.418Z,15.67
2022-10-23T20:38:08.601Z,15.68
2022-10-23T20:40:35.802Z,15.62
2022-10-23T20:43:02.931Z,15.61
2022-10-23T20:45:29.726Z,15.61
2022-10-23T20:47:56.388Z,15.63
2022-10-23T20:50:24.104Z,15.61
2022-10-23T20:52:51.791Z,15.63
2022-10-23T20:55:19.017Z,15.64
2022-10-23T20:57:46.087Z,15.66
2022-10-23T21:00:13.223Z,15.62
2022-10-23T21:02:39.994Z,15.63
2022-10-23T21:05:07.015Z,15.68
2022-10-23T21:07:33.636Z,15.63
2022-10-23T21:10:01.038Z,15.64
2022-10-23T21:12:27.658Z,15.62
2022-10-23T21:14:54.276Z,15.62
2022-10-23T21:17:20.979Z,15.61
2022-10-23T21:19:47.693Z,15.50
2022-10-23T21:22:14.684Z,15.57
2022-10-23T21:24:41.243Z,15.59
2022-10-23T21:27:07.903Z,15.56
2022-10-23T21:29:34.563Z,15.60
2022-10-23T21:32:01.644Z,15.58
2022-10-23T21:34:29.232Z,15.62
2022-10-23T21:37:13.445Z,15.60
2022-10-23T21:39:42.543Z,15.62
2022-10-23T21:42:09.201Z,15.65
2022-10-23T21:44:35.962Z,15.64
2022-10-23T21:47:02.733Z,15.65
2022-10-23T21:49:29.377Z,15.69
2022-10-23T21:51:56.008Z,15.62
2022-10-23T21:54:22.958Z,15.63
2022-10-23T21:56:53.394Z,15.62
2022-10-23T21:59:22.650Z,15.59
2022-10-23T22:01:50.014Z,15.63
2022-10-23T22:04:19.040Z,15.56
2022-10-23T22:06:47.500Z,15.62
2022-10-23T22:09:19.156Z,15.60
2022-10-23T22:11:45.865Z,15.56
2022-10-23T22:14:12.478Z,15.62
2022-10-23T22:16:39.165Z,15.64
2022-10-23T22:19:05.716Z,15.64
2022-10-23T22:21:32.622Z,15.63
2022-10-23T22:24:00.573Z,15.63
2022-10-23T22:26:36.010Z,15.65
2022-10-23T22:29:06.033Z,15.65
2022-10-23T22:31:33.910Z,15.64
2022-10-23T22:34:13.081Z,15.70
2022-10-23T22:36:48.589Z,15.67
2022-10-23T22:39:15.305Z,15.69
2022-10-23T22:42:35.916Z,15.70
2022-10-23T22:45:02.786Z,15.69
2022-10-23T22:47:30.258Z,15.55
2022-10-23T22:49:56.927Z,15.67
2022-10-23T22:52:23.465Z,15.70
2022-10-23T22:54:50.155Z,15.66
2022-10-23T22:57:16.814Z,15.68
2022-10-23T22:59:43.469Z,15.64
2022-10-23T23:02:10.081Z,15.67
2022-10-23T23:04:38.161Z,15.67
2022-10-23T23:07:09.649Z,15.65
2022-10-23T23:09:41.188Z,15.63
2022-10-23T23:12:09.602Z,15.64
2022-10-23T23:14:36.555Z,15.70
2022-10-23T23:17:03.928Z,15.70
2022-10-23T23:19:30.693Z,15.69
2022-10-23T23:21:59.073Z,15.75
2022-10-23T23:24:26.126Z,15.77
2022-10-23T23:26:53.054Z,15.76
2022-10-23T23:29:19.624Z,15.73
2022-10-23T23:31:46.371Z,15.72
2022-10-23T23:34:12.915Z,15.73
2022-10-23T23:36:39.575Z,15.78
2022-10-23T23:39:06.240Z,15.75
2022-10-23T23:41:32.899Z,15.73
2022-10-23T23:43:59.534Z,15.74
2022-10-23T23:46:26.555Z,15.73
2022-10-23T23:48:53.226Z,15.69
2022-10-23T23:51:25.029Z,15.71
2022-10-23T23:53:52.318Z,15.67
2022-10-23T23:56:19.665Z,15.64
2022-10-23T23:58:46.447Z,15.67
